Tiempo atmosférico en la estación meteorológica de Los Tojos, Bárcena Mayor, Cantabria (455 m.)



Fecha
DESCASC
Temp. máxima en grados centígrados (hora)
DESCASC
Temp. mínima en grados centígrados (hora)
DESCASC
Temp. media en grados centígrados
DESCASC
Racha de viento máxima en m/sg (hora)
DESCASC
Velocidad máxima media en intervalos de 10 minutos(hora)
DESCASC
Precipitaciones diarias en mm
DESCASC
Precipitaciones de 00:00 a 06:00 en mm
DESCASC
Precipitaciones de 06:00 a 12:00 en mm
DESCASC
Precipitaciones de 12:00 a 18:00 en mm
DESCASC
Precipitaciones de 18:00 a 24:00 en mm
DESCASC
16-01-2020 16.3 (14:20) 1.7 (00:00) 9 15.83 (12:10) 6.39 (14:50) 0 0 0 0 0
15-01-2020 14.1 (14:30) 1.7 (23:40) 7.9 11.94 (02:40) 6.11 (02:40) 0 0 0 0 0
14-01-2020 15.3 (14:30) 2 (00:00) 8.7 8.33 (14:20) 3.61 (23:20) 0 0 0 0 0
13-01-2020 13.9 (14:40) -1.2 (03:30) 6.3 4.72 (14:30) 1.94 (14:30) 0 0 0 0 0
12-01-2020 12.7 (14:40) -2.9 (-00:0) 4.9 3.33 (14:20) 1.94 (14:30) 0 0 0 0 0
11-01-2020 9.5 (14:50) -1.8 (-00:0) 3.9 1.67 (16:00) 1.11 (16:10) 0 0 0 0 0
10-01-2020 9 (14:50) 1.5 (00:00) 5.3 9.44 (04:00) 4.17 (04:20) 3.2 0 0 2.4 0.8
09-01-2020 19 (14:40) 0.9 (00:00) 9.9 14.72 (15:20) 6.39 (15:30) 1 0 0 0 1
08-01-2020 14.5 (14:30) -0.2 (00:00) 7.1 4.17 (14:20) 1.94 (14:20) 0 0 0 0 0
07-01-2020 13.7 (14:50) -0.9 (-00:0) 6.4 4.17 (15:00) 1.94 (15:00) 0 0 0 0 0
06-01-2020 11.1 (14:50) -2.4 (-00:0) 4.4 5 (14:00) 2.5 (14:00) 0 0 0 0 0
05-01-2020 10.8 (14:50) -2 (-00:0) 4.4 3.33 (15:10) 1.39 (14:50) 0 0 0 0 0
04-01-2020 9.6 (13:20) -0.2 (00:00) 4.7 3.89 (13:30) 1.67 (13:30) 0.6 0 0 0.6 0
03-01-2020 9.5 (14:40) -0.2 (00:00) 4.6 7.78 (17:40) 3.61 (17:00) 2.4 0 0.4 2 0
02-01-2020 12.6 (14:00) -2.1 (-00:0) 5.3 3.61 (14:20) 1.67 (14:20) 0 0 0 0 0
01-01-2020 11.5 (14:20) -2 (-00:0) 4.8 4.17 (14:10) 2.5 (14:30) 0 0 0 0 0
31-12-2019 11.4 (13:50) -2.9 (-00:0) 4.2 3.89 (15:50) 1.67 (15:50) 0 0 0 0 0
30-12-2019 -- (--) -- (--) -- -- (--) -- (--) -- 0 0 0 --
29-12-2019 14.9 (14:50) -1.9 (-00:0) 6.5 1.67 (09:50) 0.83 (04:10) 0 0 0 0 0
28-12-2019 13.7 (13:40) -2 (-00:0) 5.8 3.89 (04:40) 1.67 (04:40) 0 0 0 0 0
27-12-2019 11 (15:00) -3.5 (-00:0) 3.8 2.78 (16:10) 1.11 (16:10) 0 0 0 0 0
26-12-2019 12.6 (13:20) 0.2 (00:00) 6.4 5.28 (13:30) 2.22 (13:30) 0 0 0 0 0
25-12-2019 19.8 (14:30) 4.2 (00:00) 12 5 (14:20) 2.5 (14:50) 0 0 0 0 0
24-12-2019 17.4 (14:00) 3.9 (00:00) 10.6 5.28 (14:50) 2.78 (14:50) 0 0 0 0 0
23-12-2019 17.3 (14:50) 0.9 (00:00) 9.1 7.5 (12:50) 4.17 (12:50) 0 0 0 0 0
22-12-2019 15.4 (12:40) 2.4 (00:00) 8.9 15 (13:10) 5.56 (13:00) 0.4 0.2 0 0.2 0
21-12-2019 18.5 (13:30) 2.1 (00:00) 10.3 15.28 (13:10) 5 (11:50) 0.2 0 0.2 0 0

Gráficas

Temp. máximas Temp. mínimas Temp. medias Precipitaciones Rachas de viento máximas Velocidades máximas media en intervalos de 10 minutos

Datos horarios

Fecha y hora oficial Temperatura (ºC) Velocidad del viento (km/h) Dirección del viento Racha (km/h) Dirección de racha Precipitación (mm) Presión (hPa) Tendencia (hPa) Humedad (%)
2020-01-19 23:00:00 4.3 7 Noroeste 33 Sur 0 -- -- 80
2020-01-19 22:00:00 4.6 8 Sur 49 Sur 0.2 -- -- 76
2020-01-19 21:00:00 4.7 8 Sudoeste 35 Oeste 0 -- -- 77
2020-01-19 20:00:00 4.6 9 Sudoeste 29 Oeste 0 -- -- 77
2020-01-19 19:00:00 4.7 13 Oeste 39 Oeste 0 -- -- 78
2020-01-19 18:00:00 4.9 10 Oeste 41 Oeste 0 -- -- 79
2020-01-19 17:00:00 5.2 15 Oeste 33 Oeste 0 -- -- 74
2020-01-19 16:00:00 5.7 16 Oeste 46 Oeste 0 -- -- 70
2020-01-19 15:00:00 5.8 17 Oeste 36 Oeste 0 -- -- 77
2020-01-19 14:00:00 5.4 13 Oeste 35 Oeste 0.4 -- -- 83
2020-01-19 13:00:00 5.9 19 Oeste 36 Oeste 0 -- -- 81
2020-01-19 12:00:00 6 13 Oeste 35 Oeste 0.2 -- -- 83
2020-01-19 11:00:00 6 11 Oeste 34 Oeste 0 -- -- 85
2020-01-19 10:00:00 5.9 16 Oeste 35 Oeste 0 -- -- 84
2020-01-19 09:00:00 5.8 14 Oeste 46 Oeste 0.2 -- -- 86
2020-01-19 08:00:00 5.8 10 Sudoeste 28 Oeste 1.6 -- -- 93
2020-01-19 07:00:00 5.5 7 Oeste 36 Sur 2.8 -- -- 93
2020-01-19 06:00:00 6 13 Oeste 29 Oeste 2.6 -- -- 93
2020-01-19 05:00:00 6.3 7 Oeste 42 Sur 2.4 -- -- 94
2020-01-19 04:00:00 6.6 8 Sudoeste 32 Oeste 4.6 -- -- 95
2020-01-19 03:00:00 6.3 5 Oeste 14 Oeste 1.2 -- -- 99
2020-01-19 02:00:00 5.8 5 Oeste 18 Oeste 0.2 -- -- 100
2020-01-19 01:00:00 5.6 0 Calma 4 Sur 1.2 -- -- 100
2020-01-19 00:00:00 5.4 0 Calma 4 Este 0.2 -- -- 100
2020-01-18 23:00:00 5.3 2 Este 6 Sur 0.2 -- -- 100
2020-01-18 22:00:00 5.1 0 Calma -- -- 0 -- -- 99
2020-01-18 21:00:00 4.8 0 Calma 6 Este 0 -- -- 97
2020-01-18 20:00:00 5.3 3 Oeste 19 Noroeste 0 -- -- 91
2020-01-18 19:00:00 6.5 6 Oeste 21 Sudoeste 0 -- -- 90
2020-01-18 18:00:00 6.7 3 Oeste 37 Oeste 0.8 -- -- 93
2020-01-18 17:00:00 7.8 4 Sudoeste 57 Noroeste 2.6 -- -- 90
2020-01-18 16:00:00 13.4 12 Este 24 Este 0 -- -- 58
2020-01-18 15:00:00 14.1 7 Noroeste 33 Oeste 0 -- -- 54
2020-01-18 14:00:00 15.8 8 Noroeste 23 Oeste 0 -- -- 51
2020-01-18 13:00:00 15.1 12 Este 30 Este 0 -- -- 51
2020-01-18 12:00:00 13 6 Sudeste 43 Este 0 -- -- 59
2020-01-18 11:00:00 10.3 19 Este 36 Nordeste 0 -- -- 65
2020-01-18 10:00:00 10.3 10 Norte 32 Este 0 -- -- 62
2020-01-18 09:00:00 3.3 0 Calma 10 Sur 0 -- -- 94
2020-01-18 08:00:00 3.1 5 Sudeste 9 Este 0 -- -- 96
2020-01-18 07:00:00 3.1 2 Sudeste 9 Este 0 -- -- 97
2020-01-18 06:00:00 3.5 0 Calma 10 Sur 0 -- -- 96
2020-01-18 05:00:00 3.5 4 Oeste 9 Noroeste 0 -- -- 98
2020-01-18 04:00:00 3.3 2 Oeste 5 Este 0 -- -- 99
2020-01-18 03:00:00 3.3 4 Noroeste 8 Sur 0 -- -- 98
2020-01-18 02:00:00 3.2 3 Este 8 Este 0 -- -- 99
2020-01-18 01:00:00 3.2 2 Sur 5 Noroeste 0 -- -- 99
2020-01-18 00:00:00 3.2 0 Calma 5 Este 0 -- -- 98
2020-01-17 23:00:00 3.1 2 Sudoeste 12 Sudeste 0 -- -- 96
2020-01-17 22:00:00 4.2 0 Calma 4 Sur 0 -- -- 92
2020-01-17 21:00:00 5.7 0 Calma 3 Sur 0 -- -- 93
2020-01-17 20:00:00 6.1 0 Calma 3 Este 0 -- -- 90
2020-01-17 19:00:00 7 0 Calma 10 Oeste 0 -- -- 83
2020-01-17 18:00:00 7.9 3 Sudoeste 17 Oeste 0 -- -- 78
2020-01-17 17:00:00 8.8 5 Sudoeste 18 Oeste 0 -- -- 71
2020-01-17 16:00:00 9.3 5 Oeste 22 Sudeste 0 -- -- 67
2020-01-17 15:00:00 10.2 5 Oeste 14 Oeste 0 -- -- 60
2020-01-17 14:00:00 10.1 2 Oeste 6 Oeste 0 -- -- 71
2020-01-17 13:00:00 8.6 0 Calma 8 Sudoeste 0 -- -- 81
2020-01-17 12:00:00 7.6 4 Sudoeste 10 Oeste 0 -- -- 85
2020-01-17 11:00:00 7 2 Nordeste 4 Sur 0 -- -- 98
2020-01-17 10:00:00 6.2 2 Sudeste 6 Sur 0 -- -- 99
2020-01-17 09:00:00 6.1 2 Este 6 Noroeste 1.6 -- -- 97
2020-01-17 08:00:00 6.8 3 Noroeste 11 Noroeste 0 -- -- 93
2020-01-17 07:00:00 6.5 0 Calma 9 Nordeste 0 -- -- 92
2020-01-17 06:00:00 4.6 0 Calma 5 Nordeste 0 -- -- 91
2020-01-17 05:00:00 6.2 3 Sur 6 Noroeste 0 -- -- 84
2020-01-17 04:00:00 7.6 3 Noroeste 10 Sudeste 0 -- -- 79
2020-01-17 03:00:00 7.1 4 Sudeste 11 Sudoeste 0 -- -- 80
2020-01-17 02:00:00 9.5 5 Sudeste 14 Este 0 -- -- 69
2020-01-17 01:00:00 11.6 6 Norte 25 Sudeste 0 -- -- 57
2020-01-17 00:00:00 11.4 7 Este 24 Este 0 -- -- 62
2020-01-16 23:00:00 12.5 15 Este 44 Este 0 -- -- 58
2020-01-16 22:00:00 11.6 17 Este 36 Nordeste 0 -- -- 64
2020-01-16 21:00:00 11.6 14 Este 33 Este 0 -- -- 64
2020-01-16 20:00:00 12.5 16 Este 42 Sudeste 0 -- -- 58
2020-01-16 19:00:00 13.3 18 Este 40 Este 0 -- -- 52
2020-01-16 18:00:00 13.9 11 Nordeste 35 Sudeste 0 -- -- 50
2020-01-16 17:00:00 14.5 16 Este 40 Este 0 -- -- 51
2020-01-16 16:00:00 14.9 15 Este 48 Este 0 -- -- 49
2020-01-16 15:00:00 15.3 19 Este 50 Este 0 -- -- 49
2020-01-16 14:00:00 16 17 Este 48 Este 0 -- -- 51
2020-01-16 13:00:00 14.7 21 Este 57 Nordeste 0 -- -- 62
2020-01-16 12:00:00 15.1 15 Este 55 Sudeste 0 -- -- 58
2020-01-16 11:00:00 14.1 21 Nordeste 55 Nordeste 0 -- -- 62
2020-01-16 10:00:00 14.4 14 Este 53 Noroeste 0 -- -- 60
2020-01-16 09:00:00 14.8 14 Este 45 Este 0 -- -- 59
2020-01-16 08:00:00 13.8 12 Este 30 Este 0 -- -- 61
2020-01-16 07:00:00 13.3 8 Este 38 Sudeste 0 -- -- 61
2020-01-16 06:00:00 14.2 8 Este 41 Noroeste 0 -- -- 62
2020-01-16 05:00:00 15.2 8 Este 42 Sudeste 0 -- -- 55
2020-01-16 04:00:00 14.7 17 Este 44 Este 0 -- -- 62
2020-01-16 03:00:00 13 11 Este 33 Nordeste 0 -- -- 65
2020-01-16 02:00:00 2.8 5 Sudoeste 13 Noroeste 0 -- -- 100
2020-01-16 01:00:00 2 4 Este 11 Este 0 -- -- 100
2020-01-16 00:00:00 1.7 4 Sur 10 Este 0 -- -- 100
2020-01-15 23:00:00 2.2 0 Calma 9 Este 0 -- -- 100
2020-01-15 22:00:00 3.4 2 Oeste 5 Sudoeste 0 -- -- 99
2020-01-15 21:00:00 5.1 3 Sudeste 6 Sudeste 0 -- -- 97
2020-01-15 20:00:00 7.3 4 Sudeste 8 Nordeste 0 -- -- 96
2020-01-15 19:00:00 8.5 3 Sur 10 Noroeste 0 -- -- 99
2020-01-15 18:00:00 8.4 2 Sudoeste 15 Noroeste 0 -- -- 94
2020-01-15 17:00:00 9.9 5 Oeste 14 Noroeste 0 -- -- 90
2020-01-15 16:00:00 12 6 Noroeste 17 Oeste 0 -- -- 82
2020-01-15 15:00:00 13.7 10 Noroeste 17 Noroeste 0 -- -- 74
2020-01-15 14:00:00 13.7 5 Noroeste 22 Oeste 0 -- -- 74
2020-01-15 13:00:00 13.4 9 Noroeste 18 Oeste 0 -- -- 67
2020-01-15 12:00:00 12.8 11 Este 20 Nordeste 0 -- -- 65
2020-01-15 11:00:00 11.8 3 Nordeste 12 Nordeste 0 -- -- 71
2020-01-15 10:00:00 11.7 8 Nordeste 32 Este 0 -- -- 68
2020-01-15 09:00:00 10.5 3 Oeste 20 Este 0 -- -- 74
2020-01-15 08:00:00 10.7 8 Este 17 Este 0 -- -- 72
2020-01-15 07:00:00 10.7 3 Sur 15 Nordeste 0 -- -- 73
2020-01-15 06:00:00 10.4 5 Sudeste 29 Este 0 -- -- 75
2020-01-15 05:00:00 11.3 16 Este 35 Sudeste 0 -- -- 69
2020-01-15 04:00:00 11.5 13 Este 36 Este 0 -- -- 69
2020-01-15 03:00:00 12.1 19 Este 43 Este 0 -- -- 64
2020-01-15 02:00:00 10.6 12 Este 29 Este 0 -- -- 69
2020-01-15 01:00:00 9.6 5 Oeste 19 Oeste 0 -- -- 68
2020-01-15 00:00:00 9.2 6 Este 29 Nordeste 0 -- -- 76
2020-01-14 23:00:00 5.7 0 Calma 0 Calma 0 -- -- 85
2020-01-14 22:00:00 5.6 0 Calma 10 Este 0 -- -- 85
2020-01-14 21:00:00 5.9 0 Calma 9 Noroeste 0 -- -- 84
2020-01-14 20:00:00 7.1 3 Sudeste 9 Noroeste 0 -- -- 77
2020-01-14 19:00:00 8.3 2 Sur 9 Nordeste 0 -- -- 71
2020-01-14 18:00:00 10.2 2 Oeste 11 Noroeste 0 -- -- 66
2020-01-14 17:00:00 12.7 8 Noroeste 22 Noroeste 0 -- -- 52
2020-01-14 16:00:00 12.8 5 Oeste 22 Oeste 0 -- -- 50
2020-01-14 15:00:00 14.8 10 Noroeste 30 Norte 0 -- -- 43
2020-01-14 14:00:00 13.5 6 Sudeste 23 Este 0 -- -- 48
2020-01-14 13:00:00 12.8 8 Sudeste 21 Este 0 -- -- 50
2020-01-14 12:00:00 9.8 3 Sudoeste 7 Noroeste 0 -- -- 75
2020-01-14 11:00:00 8.6 3 Sudeste 18 Sudoeste 0 -- -- 82
2020-01-14 10:00:00 5.7 0 Calma 9 Este 0 -- -- 93
2020-01-14 09:00:00 4.3 2 Sur 10 Este 0 -- -- 93
2020-01-14 08:00:00 4 2 Oeste 6 Este 0 -- -- 91
2020-01-14 07:00:00 4.3 0 Calma 8 Este 0 -- -- 91
2020-01-14 06:00:00 4.4 4 Oeste 6 Sudoeste 0 -- -- 89
2020-01-14 05:00:00 4.1 0 Calma 7 Este 0 -- -- 91
2020-01-14 04:00:00 4 0 Calma 9 Este 0 -- -- 89
2020-01-14 03:00:00 3.5 5 Noroeste 8 Sudoeste 0 -- -- 87
2020-01-14 02:00:00 2.6 2 Este 9 Este 0 -- -- 90
2020-01-14 01:00:00 2.2 3 Nordeste 8 Norte 0 -- -- 88
2020-01-14 00:00:00 2 3 Sur 8 Noroeste 0 -- -- 87
2020-01-13 23:00:00 1.7 0 Calma 8 Este 0 -- -- 88
2020-01-13 22:00:00 1.6 2 Este 8 Este 0 -- -- 88
2020-01-13 21:00:00 1.8 0 Calma 9 Este 0 -- -- 85
2020-01-13 20:00:00 3.2 5 Sudeste 11 Sur 0 -- -- 77
2020-01-13 19:00:00 4.8 2 Este 8 Sur 0 -- -- 73
2020-01-13 18:00:00 7.3 3 Sudeste 10 Sudeste 0 -- -- 67
2020-01-13 17:00:00 11.1 0 Calma 12 Sudeste 0 -- -- 57
2020-01-13 16:00:00 13.1 5 Nordeste 12 Noroeste 0 -- -- 38
2020-01-13 15:00:00 13.5 3 Sudeste 17 Este 0 -- -- 48
2020-01-13 14:00:00 12.3 2 Sur 6 Oeste 0 -- -- 60
2020-01-13 13:00:00 9.5 0 Calma 5 Sur 0 -- -- 74
2020-01-13 12:00:00 4.6 0 Calma 6 Este 0 -- -- 100
2020-01-13 11:00:00 1.8 4 Sudeste 6 Este 0 -- -- 100
2020-01-13 10:00:00 0 0 Calma 7 Este 0 -- -- 100
2020-01-13 09:00:00 -0.9 0 Calma 5 Este 0 -- -- 100
2020-01-13 08:00:00 -1.2 0 Calma 6 Este 0 -- -- 100
2020-01-13 07:00:00 -1.1 0 Calma 5 Este 0 -- -- 100
2020-01-13 06:00:00 -1.2 0 Calma 5 Este 0 -- -- 100
2020-01-13 05:00:00 -1.1 2 Este 5 Este 0 -- -- 100
2020-01-13 04:00:00 -1.2 0 Calma 3 Este 0 -- -- 100
2020-01-13 03:00:00 -1.1 0 Calma 3 Nordeste 0 -- -- 100
2020-01-13 02:00:00 -0.9 0 Calma 4 Este 0 -- -- 100
2020-01-13 01:00:00 -0.4 0 Calma 4 Este 0 -- -- 100
2020-01-13 00:00:00 -0.2 2 Este 4 Sur 0 -- -- 100
2020-01-12 23:00:00 0.3 3 Este 6 Este 0 -- -- 100
2020-01-12 22:00:00 0.9 0 Calma 5 Este 0 -- -- 99
2020-01-12 21:00:00 1.8 0 Calma 4 Este 0 -- -- 98
2020-01-12 20:00:00 2.6 0 Calma 4 Este 0 -- -- 96
2020-01-12 19:00:00 4.4 0 Calma 4 Sur 0 -- -- 90
2020-01-12 18:00:00 7.2 2 Sudeste 4 Este 0 -- -- 86
2020-01-12 17:00:00 8.4 0 Calma 6 Oeste 0 -- -- 83
2020-01-12 16:00:00 9.1 3 Sudoeste 12 Oeste 0 -- -- 78
2020-01-12 15:00:00 11.9 5 Oeste 12 Oeste 0 -- -- 70
2020-01-12 14:00:00 12.5 6 Oeste 11 Oeste 0 -- -- 69
2020-01-12 13:00:00 10.3 2 Sudoeste 4 Oeste 0 -- -- 78
2020-01-12 12:00:00 5.6 0 Calma 3 Sur 0 -- -- 83
2020-01-12 11:00:00 0.6 0 Calma 4 Sur 0 -- -- 100
2020-01-12 10:00:00 -2.3 0 Calma 3 Este 0 -- -- 100
2020-01-12 09:00:00 -2.8 0 Calma 4 Sudeste 0 -- -- 100
2020-01-12 08:00:00 -2.6 0 Calma 4 Este 0 -- -- 100
2020-01-12 07:00:00 -2.4 0 Calma 4 Nordeste 0 -- -- 100
2020-01-12 06:00:00 -2.1 0 Calma 4 Sudeste 0 -- -- 100
2020-01-12 05:00:00 -2 0 Calma 5 Este 0 -- -- 100
2020-01-12 04:00:00 -1.8 0 Calma 4 Este 0 -- -- 100
2020-01-12 03:00:00 -1.5 0 Calma 4 Este 0 -- -- 100
2020-01-12 02:00:00 -1.4 0 Calma 4 Este 0 -- -- 100
2020-01-12 01:00:00 -1.2 2 Este 4 Este 0 -- -- 100
2020-01-12 00:00:00 -0.8 0 Calma 5 Este 0 -- -- 100
2020-01-11 23:00:00 -0.5 0 Calma -- -- 0 -- -- 100
2020-01-11 22:00:00 0.3 0 Calma -- -- 0 -- -- 99
2020-01-11 21:00:00 1.2 0 Calma -- -- 0 -- -- 96
2020-01-11 20:00:00 2.6 0 Calma 3 Este 0 -- -- 95
2020-01-11 19:00:00 4.1 0 Calma 3 Este 0 -- -- 90
2020-01-11 18:00:00 6.6 0 Calma 4 Sudoeste 0 -- -- 83
2020-01-11 17:00:00 8.5 2 Sur 6 Oeste 0 -- -- 76
2020-01-11 16:00:00 8.8 3 Sudoeste 6 Oeste 0 -- -- 74
2020-01-11 15:00:00 9.5 3 Sudoeste 5 Oeste 0 -- -- 71
2020-01-11 14:00:00 8.7 2 Sur 4 Sudoeste 0 -- -- 80
2020-01-11 13:00:00 7.2 2 Sur 3 Sudoeste 0 -- -- 90
2020-01-11 12:00:00 4.4 0 Calma 2 Sur 0 -- -- 100
2020-01-11 11:00:00 0.8 0 Calma 2 Sudeste 0 -- -- 100
2020-01-11 10:00:00 -1.6 0 Calma 3 Este 0 -- -- 100
2020-01-11 09:00:00 -1.8 0 Calma 5 Este 0 -- -- 100
2020-01-11 08:00:00 -1.7 0 Calma 3 Este 0 -- -- 100
2020-01-11 07:00:00 -1.2 0 Calma 5 Este 0 -- -- 100
2020-01-11 06:00:00 -1.1 2 Este 4 Este 0 -- -- 100
2020-01-11 05:00:00 -0.9 2 Este 4 Este 0 -- -- 100
2020-01-11 04:00:00 -0.6 0 Calma 4 Este 0 -- -- 100
2020-01-11 03:00:00 -0.2 2 Sudeste 4 Este 0 -- -- 100
2020-01-11 02:00:00 0.5 0 Calma 4 Este 0 -- -- 100
2020-01-11 01:00:00 1.6 0 Calma 4 Sudeste 0 -- -- 100
2020-01-11 00:00:00 2.6 2 Este 4 Este 0 -- -- 99
2020-01-10 23:00:00 4 0 Calma -- -- 0 -- -- 99
2020-01-10 22:00:00 5.4 0 Calma -- -- 0 -- -- 100
2020-01-10 21:00:00 5.5 0 Calma -- -- 0.2 -- -- 100
2020-01-10 20:00:00 5.9 0 Calma -- -- 0 -- -- 100
2020-01-10 19:00:00 6.3 0 Calma -- -- 0.6 -- -- 100
2020-01-10 18:00:00 6.6 0 Calma 6 Sur 1.2 -- -- 98
2020-01-10 17:00:00 7.3 0 Calma 12 Noroeste 0.4 -- -- 95
2020-01-10 16:00:00 7.9 5 Oeste 31 Oeste 0.2 -- -- 89
2020-01-10 15:00:00 8.8 8 Noroeste 17 Noroeste 0 -- -- 82
2020-01-10 14:00:00 7.4 0 Calma 15 Oeste 0.4 -- -- 93
2020-01-10 13:00:00 7.1 6 Oeste 21 Noroeste 0.2 -- -- 92
2020-01-10 12:00:00 7.7 8 Oeste 22 Oeste 0 -- -- 83
2020-01-10 11:00:00 7.3 8 Oeste 20 Oeste 0 -- -- 83
2020-01-10 10:00:00 6.5 5 Oeste 21 Oeste 0 -- -- 87
2020-01-10 09:00:00 5.1 3 Oeste 14 Noroeste 0 -- -- 91
2020-01-10 08:00:00 6.3 9 Oeste 26 Noroeste 0 -- -- 84
2020-01-10 07:00:00 5.9 9 Oeste 21 Noroeste 0 -- -- 84
2020-01-10 06:00:00 4.4 0 Calma 14 Oeste 0 -- -- 94
2020-01-10 05:00:00 4.6 0 Calma 32 Noroeste 0 -- -- 92
2020-01-10 04:00:00 4.1 10 Oeste 34 Oeste 0 -- -- 100
2020-01-10 03:00:00 2.1 3 Sudeste 8 Sur 0 -- -- 100
2020-01-10 02:00:00 1.8 0 Calma 6 Sudeste 0 -- -- 100
2020-01-10 01:00:00 1.8 2 Sudeste 7 Sudeste 0 -- -- 99
2020-01-10 00:00:00 2.8 2 Sudeste 6 Sur 0 -- -- 97
2020-01-09 23:00:00 4.9 0 Calma 25 Noroeste 0 -- -- 91
2020-01-09 22:00:00 8 17 Oeste 41 Oeste 0 -- -- 75
2020-01-09 21:00:00 7.4 0 Calma 6 Sur 0 -- -- 100
2020-01-09 20:00:00 7.7 0 Calma 6 Sudeste 0.2 -- -- 100
2020-01-09 19:00:00 8 3 Oeste 5 Sudeste 0.8 -- -- 98
2020-01-09 18:00:00 8.6 0 Calma 7 Sudeste 0 -- -- 94
2020-01-09 17:00:00 9.2 3 Sudoeste 23 Noroeste 0 -- -- 90
2020-01-09 16:00:00 10.3 11 Noroeste 53 Oeste 0 -- -- 85
2020-01-09 15:00:00 18.8 13 Noroeste 30 Noroeste 0 -- -- 46
2020-01-09 14:00:00 16 2 Sur 6 Sudoeste 0 -- -- 65
2020-01-09 13:00:00 14 3 Sudoeste 6 Sudoeste 0 -- -- 72
2020-01-09 12:00:00 10.3 2 Sudoeste 5 Sur 0 -- -- 85
2020-01-09 11:00:00 5.2 0 Calma 4 Sudeste 0 -- -- 100
2020-01-09 10:00:00 1.7 0 Calma 7 Este 0 -- -- 100
2020-01-09 09:00:00 1.2 0 Calma 7 Este 0 -- -- 100
2020-01-09 08:00:00 1 3 Sudeste 5 Este 0 -- -- 100
2020-01-09 07:00:00 1.2 0 Calma 4 Norte 0 -- -- 100
2020-01-09 06:00:00 1.5 3 Este 7 Este 0 -- -- 100
2020-01-09 05:00:00 1.1 0 Calma 4 Este 0 -- -- 100
2020-01-09 04:00:00 1.1 0 Calma 5 Este 0 -- -- 100
2020-01-09 03:00:00 1.2 0 Calma 5 Este 0 -- -- 100
2020-01-09 02:00:00 1.3 3 Este 6 Este 0 -- -- 100
2020-01-09 01:00:00 1.4 3 Este 6 Este 0 -- -- 100
2020-01-09 00:00:00 1.5 0 Calma 4 Este 0 -- -- 99
2020-01-08 23:00:00 2.1 2 Este 4 Sudeste 0 -- -- 98
2020-01-08 22:00:00 2.7 0 Calma -- -- 0 -- -- 97
2020-01-08 21:00:00 3.5 0 Calma 4 Este 0 -- -- 96
2020-01-08 20:00:00 4.3 0 Calma -- -- 0 -- -- 91
2020-01-08 19:00:00 5.8 0 Calma -- -- 0 -- -- 86
2020-01-08 18:00:00 8 0 Calma -- -- 0 -- -- 79
2020-01-08 17:00:00 10.1 0 Calma 8 Oeste 0 -- -- 71
2020-01-08 16:00:00 11.8 4 Oeste 15 Noroeste 0 -- -- 61
2020-01-08 15:00:00 14 5 Oeste 15 Noroeste 0 -- -- 54
2020-01-08 14:00:00 14.4 5 Noroeste 10 Noroeste 0 -- -- 47
2020-01-08 13:00:00 12.1 0 Calma 4 Noroeste 0 -- -- 59
2020-01-08 12:00:00 8.7 0 Calma 2 Sur 0 -- -- 76
2020-01-08 11:00:00 4.6 0 Calma 0 Calma 0 -- -- 98
2020-01-08 10:00:00 2.7 0 Calma 4 Este 0 -- -- 99
2020-01-08 09:00:00 1.2 0 Calma 4 Este 0 -- -- 100
2020-01-08 08:00:00 0.6 2 Este 3 Este 0 -- -- 100
2020-01-08 07:00:00 -0.2 0 Calma 3 Este 0 -- -- 100
2020-01-08 06:00:00 -0.1 0 Calma 4 Este 0 -- -- 100
2020-01-08 05:00:00 0 3 Este 4 Este 0 -- -- 100
2020-01-08 04:00:00 0.1 2 Sudeste 4 Este 0 -- -- 99
2020-01-08 03:00:00 0.3 0 Calma 4 Nordeste 0 -- -- 99
2020-01-08 02:00:00 0.3 2 Sudeste 4 Sudeste 0 -- -- 100
2020-01-08 01:00:00 0.5 0 Calma 5 Nordeste 0 -- -- 100
2020-01-08 00:00:00 0.6 0 Calma -- -- 0 -- -- 100
2020-01-07 23:00:00 1 0 Calma -- -- 0 -- -- 100
2020-01-07 22:00:00 1.7 0 Calma 4 Este 0 -- -- 98
2020-01-07 21:00:00 2.5 0 Calma 4 Este 0 -- -- 98
2020-01-07 20:00:00 3.5 0 Calma 4 Este 0 -- -- 94
2020-01-07 19:00:00 5.2 2 Este 4 Este 0 -- -- 91
2020-01-07 18:00:00 7.5 0 Calma 4 Sur 0 -- -- 83
2020-01-07 17:00:00 9.9 3 Sudoeste 11 Oeste 0 -- -- 78
2020-01-07 16:00:00 12.1 4 Sudoeste 13 Noroeste 0 -- -- 68
2020-01-07 15:00:00 13.5 7 Oeste 15 Oeste 0 -- -- 65
2020-01-07 14:00:00 12.7 0 Calma 12 Oeste 0 -- -- 71
2020-01-07 13:00:00 11.6 0 Calma 4 Sudoeste 0 -- -- 70
2020-01-07 12:00:00 8.3 0 Calma 2 Sudeste 0 -- -- 90
2020-01-07 11:00:00 3.5 0 Calma 6 Este 0 -- -- 100
2020-01-07 10:00:00 1.1 3 Este 5 Este 0 -- -- 100
2020-01-07 09:00:00 -0.3 2 Este 4 Este 0 -- -- 100
2020-01-07 08:00:00 -0.5 2 Este 5 Este 0 -- -- 100
2020-01-07 07:00:00 -0.6 0 Calma 6 Este 0 -- -- 100
2020-01-07 06:00:00 -0.8 0 Calma 3 Este 0 -- -- 100
2020-01-07 05:00:00 -0.8 2 Este 4 Este 0 -- -- 100
2020-01-07 04:00:00 -0.8 2 Sudeste 5 Este 0 -- -- 100
2020-01-07 03:00:00 -0.8 0 Calma 4 Este 0 -- -- 100
2020-01-07 02:00:00 -0.8 3 Este 5 Este 0 -- -- 100
2020-01-07 01:00:00 -0.5 0 Calma 4 Este 0 -- -- 100
2020-01-07 00:00:00 0 0 Calma 4 Sudeste 0 -- -- 100
2020-01-06 23:00:00 1.1 0 Calma 4 Este 0 -- -- 99
2020-01-06 22:00:00 2.4 3 Sudeste 5 Este 0 -- -- 98
2020-01-06 21:00:00 3.9 0 Calma 6 Nordeste 0 -- -- 100
2020-01-06 20:00:00 3.2 2 Sudeste 9 Este 0 -- -- 100
2020-01-06 19:00:00 3.6 2 Oeste 5 Sudoeste 0 -- -- 95
2020-01-06 18:00:00 6.9 2 Sudeste 10 Noroeste 0 -- -- 91
2020-01-06 17:00:00 8.3 3 Oeste 15 Noroeste 0 -- -- 87
2020-01-06 16:00:00 10 4 Noroeste 15 Oeste 0 -- -- 80
2020-01-06 15:00:00 10.9 6 Noroeste 16 Noroeste 0 -- -- 70
2020-01-06 14:00:00 10.2 9 Noroeste 18 Oeste 0 -- -- 66
2020-01-06 13:00:00 8.7 5 Oeste 13 Noroeste 0 -- -- 66
2020-01-06 12:00:00 5.3 0 Calma 4 Este 0 -- -- 85
2020-01-06 11:00:00 0.8 0 Calma 4 Este 0 -- -- 100
2020-01-06 10:00:00 -2.1 0 Calma 4 Este 0 -- -- 100